sensor_id;sensor_type;location;lat;lon;timestamp;P1;durP1;ratioP1;P2;durP2;ratioP2
59442;SDS011;45247;47.466;19.004;2023-11-21T00:00:08;13.98;;;6.70;;
59442;SDS011;45247;47.466;19.004;2023-11-21T00:02:41;16.95;;;6.60;;
59442;SDS011;45247;47.466;19.004;2023-11-21T00:05:10;17.65;;;7.10;;
59442;SDS011;45247;47.466;19.004;2023-11-21T00:07:40;12.98;;;6.53;;
59442;SDS011;45247;47.466;19.004;2023-11-21T00:10:09;12.30;;;5.97;;
59442;SDS011;45247;47.466;19.004;2023-11-21T00:12:41;12.18;;;5.22;;
59442;SDS011;45247;47.466;19.004;2023-11-21T00:15:10;13.82;;;7.07;;
59442;SDS011;45247;47.466;19.004;2023-11-21T00:17:43;18.25;;;8.07;;
59442;SDS011;45247;47.466;19.004;2023-11-21T00:20:11;14.60;;;7.57;;
59442;SDS011;45247;47.466;19.004;2023-11-21T00:22:40;15.93;;;6.82;;
59442;SDS011;45247;47.466;19.004;2023-11-21T00:25:09;13.10;;;5.38;;
59442;SDS011;45247;47.466;19.004;2023-11-21T00:27:38;10.27;;;4.90;;
59442;SDS011;45247;47.466;19.004;2023-11-21T00:30:06;11.70;;;5.65;;
59442;SDS011;45247;47.466;19.004;2023-11-21T00:32:35;19.05;;;7.38;;
59442;SDS011;45247;47.466;19.004;2023-11-21T00:35:06;13.00;;;8.13;;
59442;SDS011;45247;47.466;19.004;2023-11-21T00:37:34;20.05;;;10.00;;
59442;SDS011;45247;47.466;19.004;2023-11-21T00:40:03;14.88;;;9.32;;
59442;SDS011;45247;47.466;19.004;2023-11-21T00:42:33;16.77;;;9.40;;
59442;SDS011;45247;47.466;19.004;2023-11-21T00:45:02;21.17;;;10.35;;
59442;SDS011;45247;47.466;19.004;2023-11-21T00:47:31;14.55;;;9.10;;
59442;SDS011;45247;47.466;19.004;2023-11-21T00:49:59;21.90;;;10.07;;
59442;SDS011;45247;47.466;19.004;2023-11-21T00:52:29;16.60;;;9.20;;
59442;SDS011;45247;47.466;19.004;2023-11-21T00:54:57;24.65;;;9.35;;
59442;SDS011;45247;47.466;19.004;2023-11-21T00:57:26;18.83;;;8.07;;
59442;SDS011;45247;47.466;19.004;2023-11-21T00:59:55;21.92;;;8.40;;
59442;SDS011;45247;47.466;19.004;2023-11-21T01:02:23;20.25;;;7.80;;
59442;SDS011;45247;47.466;19.004;2023-11-21T01:04:52;11.77;;;6.65;;
59442;SDS011;45247;47.466;19.004;2023-11-21T01:07:20;13.95;;;5.53;;
59442;SDS011;45247;47.466;19.004;2023-11-21T01:09:52;12.98;;;6.18;;
59442;SDS011;45247;47.466;19.004;2023-11-21T01:12:20;12.75;;;5.50;;
59442;SDS011;45247;47.466;19.004;2023-11-21T01:14:51;16.25;;;7.05;;
59442;SDS011;45247;47.466;19.004;2023-11-21T01:17:20;13.73;;;6.00;;
59442;SDS011;45247;47.466;19.004;2023-11-21T01:19:49;11.18;;;5.30;;
59442;SDS011;45247;47.466;19.004;2023-11-21T01:22:17;10.88;;;4.78;;
59442;SDS011;45247;47.466;19.004;2023-11-21T01:24:53;7.85;;;4.35;;
59442;SDS011;45247;47.466;19.004;2023-11-21T01:27:22;9.82;;;4.70;;
59442;SDS011;45247;47.466;19.004;2023-11-21T01:29:50;13.02;;;6.07;;
59442;SDS011;45247;47.466;19.004;2023-11-21T01:32:20;12.65;;;6.75;;
59442;SDS011;45247;47.466;19.004;2023-11-21T01:34:50;14.52;;;6.85;;
59442;SDS011;45247;47.466;19.004;2023-11-21T01:37:18;11.60;;;5.90;;
59442;SDS011;45247;47.466;19.004;2023-11-21T01:39:48;10.50;;;5.32;;
59442;SDS011;45247;47.466;19.004;2023-11-21T01:42:18;10.60;;;4.65;;
59442;SDS011;45247;47.466;19.004;2023-11-21T01:44:46;8.98;;;3.65;;
59442;SDS011;45247;47.466;19.004;2023-11-21T01:47:15;14.50;;;4.50;;
59442;SDS011;45247;47.466;19.004;2023-11-21T01:49:44;8.15;;;3.67;;
59442;SDS011;45247;47.466;19.004;2023-11-21T01:52:14;11.30;;;4.60;;
59442;SDS011;45247;47.466;19.004;2023-11-21T01:54:42;9.98;;;3.90;;
59442;SDS011;45247;47.466;19.004;2023-11-21T01:57:11;10.63;;;5.22;;
59442;SDS011;45247;47.466;19.004;2023-11-21T01:59:41;13.07;;;6.68;;
59442;SDS011;45247;47.466;19.004;2023-11-21T02:02:11;11.07;;;7.63;;
59442;SDS011;45247;47.466;19.004;2023-11-21T02:04:39;17.38;;;7.88;;
59442;SDS011;45247;47.466;19.004;2023-11-21T02:07:08;16.88;;;7.25;;
59442;SDS011;45247;47.466;19.004;2023-11-21T02:09:36;21.23;;;7.80;;
59442;SDS011;45247;47.466;19.004;2023-11-21T02:12:09;11.35;;;6.05;;
59442;SDS011;45247;47.466;19.004;2023-11-21T02:14:37;16.98;;;6.18;;
59442;SDS011;45247;47.466;19.004;2023-11-21T02:17:07;9.57;;;5.15;;
59442;SDS011;45247;47.466;19.004;2023-11-21T02:19:35;9.23;;;3.92;;
59442;SDS011;45247;47.466;19.004;2023-11-21T02:22:05;9.75;;;4.68;;
59442;SDS011;45247;47.466;19.004;2023-11-21T02:24:36;7.70;;;3.70;;
59442;SDS011;45247;47.466;19.004;2023-11-21T02:27:04;8.90;;;3.85;;
59442;SDS011;45247;47.466;19.004;2023-11-21T02:29:33;9.15;;;4.43;;
59442;SDS011;45247;47.466;19.004;2023-11-21T02:32:02;14.63;;;6.28;;
59442;SDS011;45247;47.466;19.004;2023-11-21T02:34:30;15.98;;;6.82;;
59442;SDS011;45247;47.466;19.004;2023-11-21T02:36:59;15.27;;;7.32;;
59442;SDS011;45247;47.466;19.004;2023-11-21T02:39:28;14.10;;;7.43;;
59442;SDS011;45247;47.466;19.004;2023-11-21T02:41:57;14.02;;;6.97;;
59442;SDS011;45247;47.466;19.004;2023-11-21T02:44:26;10.35;;;6.30;;
59442;SDS011;45247;47.466;19.004;2023-11-21T02:46:54;15.07;;;6.80;;
59442;SDS011;45247;47.466;19.004;2023-11-21T02:49:24;13.23;;;7.25;;
59442;SDS011;45247;47.466;19.004;2023-11-21T02:51:55;13.38;;;6.55;;
59442;SDS011;45247;47.466;19.004;2023-11-21T02:54:24;14.63;;;6.45;;
59442;SDS011;45247;47.466;19.004;2023-11-21T02:56:53;10.95;;;5.97;;
59442;SDS011;45247;47.466;19.004;2023-11-21T02:59:23;9.98;;;5.90;;
59442;SDS011;45247;47.466;19.004;2023-11-21T03:01:52;15.40;;;5.85;;
59442;SDS011;45247;47.466;19.004;2023-11-21T03:04:20;14.23;;;6.22;;
59442;SDS011;45247;47.466;19.004;2023-11-21T03:06:48;9.50;;;5.05;;
59442;SDS011;45247;47.466;19.004;2023-11-21T03:09:17;5.75;;;3.88;;
59442;SDS011;45247;47.466;19.004;2023-11-21T03:11:46;8.95;;;4.20;;
59442;SDS011;45247;47.466;19.004;2023-11-21T03:14:14;7.28;;;3.78;;
59442;SDS011;45247;47.466;19.004;2023-11-21T03:16:44;9.38;;;4.05;;
59442;SDS011;45247;47.466;19.004;2023-11-21T03:19:12;12.90;;;5.22;;
59442;SDS011;45247;47.466;19.004;2023-11-21T03:21:41;9.18;;;4.47;;
59442;SDS011;45247;47.466;19.004;2023-11-21T03:24:09;7.97;;;4.63;;
59442;SDS011;45247;47.466;19.004;2023-11-21T03:26:38;17.98;;;5.50;;
59442;SDS011;45247;47.466;19.004;2023-11-21T03:29:06;10.25;;;5.03;;
59442;SDS011;45247;47.466;19.004;2023-11-21T03:31:34;11.52;;;5.43;;
59442;SDS011;45247;47.466;19.004;2023-11-21T03:34:04;8.45;;;4.75;;
59442;SDS011;45247;47.466;19.004;2023-11-21T03:36:32;9.45;;;5.30;;
59442;SDS011;45247;47.466;19.004;2023-11-21T03:39:01;9.27;;;5.20;;
59442;SDS011;45247;47.466;19.004;2023-11-21T03:41:29;10.63;;;5.43;;
59442;SDS011;45247;47.466;19.004;2023-11-21T03:43:57;9.07;;;5.45;;
59442;SDS011;45247;47.466;19.004;2023-11-21T03:46:26;11.35;;;5.70;;
59442;SDS011;45247;47.466;19.004;2023-11-21T03:48:54;14.25;;;5.72;;
59442;SDS011;45247;47.466;19.004;2023-11-21T03:51:24;11.25;;;4.75;;
59442;SDS011;45247;47.466;19.004;2023-11-21T03:53:53;7.38;;;4.30;;
59442;SDS011;45247;47.466;19.004;2023-11-21T03:56:21;11.73;;;5.45;;
59442;SDS011;45247;47.466;19.004;2023-11-21T03:58:49;12.57;;;6.25;;
59442;SDS011;45247;47.466;19.004;2023-11-21T04:01:20;13.15;;;6.93;;
59442;SDS011;45247;47.466;19.004;2023-11-21T04:03:49;12.25;;;6.72;;
59442;SDS011;45247;47.466;19.004;2023-11-21T04:06:18;14.40;;;7.45;;
59442;SDS011;45247;47.466;19.004;2023-11-21T04:08:47;13.25;;;6.55;;
59442;SDS011;45247;47.466;19.004;2023-11-21T04:11:16;12.40;;;6.55;;
59442;SDS011;45247;47.466;19.004;2023-11-21T04:13:44;15.43;;;6.10;;
59442;SDS011;45247;47.466;19.004;2023-11-21T04:16:13;12.18;;;6.47;;
59442;SDS011;45247;47.466;19.004;2023-11-21T04:18:41;12.18;;;6.03;;
59442;SDS011;45247;47.466;19.004;2023-11-21T04:21:10;14.43;;;6.93;;
59442;SDS011;45247;47.466;19.004;2023-11-21T04:23:38;13.48;;;6.65;;
59442;SDS011;45247;47.466;19.004;2023-11-21T04:26:08;15.75;;;6.28;;
59442;SDS011;45247;47.466;19.004;2023-11-21T04:28:36;10.20;;;5.50;;
59442;SDS011;45247;47.466;19.004;2023-11-21T04:31:04;9.65;;;5.30;;
59442;SDS011;45247;47.466;19.004;2023-11-21T04:33:33;7.38;;;4.50;;
59442;SDS011;45247;47.466;19.004;2023-11-21T04:36:01;12.88;;;5.50;;
59442;SDS011;45247;47.466;19.004;2023-11-21T04:38:30;11.85;;;4.68;;
59442;SDS011;45247;47.466;19.004;2023-11-21T04:40:59;7.78;;;4.18;;
59442;SDS011;45247;47.466;19.004;2023-11-21T04:43:30;14.32;;;5.18;;
59442;SDS011;45247;47.466;19.004;2023-11-21T04:45:59;9.52;;;5.03;;
59442;SDS011;45247;47.466;19.004;2023-11-21T04:48:29;14.98;;;5.40;;
59442;SDS011;45247;47.466;19.004;2023-11-21T04:50:57;10.38;;;6.07;;
59442;SDS011;45247;47.466;19.004;2023-11-21T04:53:25;11.65;;;6.18;;
59442;SDS011;45247;47.466;19.004;2023-11-21T04:55:54;14.45;;;6.32;;
59442;SDS011;45247;47.466;19.004;2023-11-21T04:58:22;10.18;;;5.70;;
59442;SDS011;45247;47.466;19.004;2023-11-21T05:00:52;8.57;;;5.03;;
59442;SDS011;45247;47.466;19.004;2023-11-21T05:03:20;10.65;;;5.45;;
59442;SDS011;45247;47.466;19.004;2023-11-21T05:05:50;11.30;;;5.60;;
59442;SDS011;45247;47.466;19.004;2023-11-21T05:08:19;11.88;;;5.57;;
59442;SDS011;45247;47.466;19.004;2023-11-21T05:10:49;11.00;;;5.05;;
59442;SDS011;45247;47.466;19.004;2023-11-21T05:13:18;11.00;;;5.20;;
59442;SDS011;45247;47.466;19.004;2023-11-21T05:15:46;10.65;;;5.20;;
59442;SDS011;45247;47.466;19.004;2023-11-21T05:18:16;13.57;;;5.05;;
59442;SDS011;45247;47.466;19.004;2023-11-21T05:20:44;8.35;;;4.20;;
59442;SDS011;45247;47.466;19.004;2023-11-21T05:23:14;7.70;;;3.65;;
59442;SDS011;45247;47.466;19.004;2023-11-21T05:25:42;15.52;;;5.20;;
59442;SDS011;45247;47.466;19.004;2023-11-21T05:28:11;14.80;;;6.07;;
59442;SDS011;45247;47.466;19.004;2023-11-21T05:30:42;8.20;;;4.95;;
59442;SDS011;45247;47.466;19.004;2023-11-21T05:33:11;10.75;;;4.72;;
59442;SDS011;45247;47.466;19.004;2023-11-21T05:35:59;12.88;;;4.35;;
59442;SDS011;45247;47.466;19.004;2023-11-21T05:38:27;13.82;;;5.03;;
59442;SDS011;45247;47.466;19.004;2023-11-21T05:40:56;12.15;;;3.92;;
59442;SDS011;45247;47.466;19.004;2023-11-21T05:43:27;8.05;;;4.32;;
59442;SDS011;45247;47.466;19.004;2023-11-21T05:45:59;8.52;;;4.18;;
59442;SDS011;45247;47.466;19.004;2023-11-21T05:48:29;8.05;;;4.03;;
59442;SDS011;45247;47.466;19.004;2023-11-21T05:51:01;8.82;;;3.80;;
59442;SDS011;45247;47.466;19.004;2023-11-21T05:53:31;8.23;;;3.90;;
59442;SDS011;45247;47.466;19.004;2023-11-21T05:56:00;10.07;;;3.75;;
59442;SDS011;45247;47.466;19.004;2023-11-21T06:01:01;8.68;;;3.90;;
59442;SDS011;45247;47.466;19.004;2023-11-21T06:06:05;7.70;;;3.97;;
59442;SDS011;45247;47.466;19.004;2023-11-21T06:08:34;9.63;;;4.28;;
59442;SDS011;45247;47.466;19.004;2023-11-21T06:11:02;11.40;;;4.15;;
59442;SDS011;45247;47.466;19.004;2023-11-21T06:13:30;11.63;;;5.13;;
59442;SDS011;45247;47.466;19.004;2023-11-21T06:15:59;10.13;;;3.85;;
59442;SDS011;45247;47.466;19.004;2023-11-21T06:18:27;7.85;;;4.15;;
59442;SDS011;45247;47.466;19.004;2023-11-21T06:20:57;12.35;;;3.95;;
59442;SDS011;45247;47.466;19.004;2023-11-21T06:23:27;11.43;;;3.70;;
59442;SDS011;45247;47.466;19.004;2023-11-21T06:25:55;8.18;;;3.88;;
59442;SDS011;45247;47.466;19.004;2023-11-21T06:28:23;9.75;;;3.83;;
59442;SDS011;45247;47.466;19.004;2023-11-21T06:30:52;11.27;;;3.65;;
59442;SDS011;45247;47.466;19.004;2023-11-21T06:33:20;9.25;;;3.92;;
59442;SDS011;45247;47.466;19.004;2023-11-21T06:35:50;11.25;;;3.88;;
59442;SDS011;45247;47.466;19.004;2023-11-21T06:38:19;11.88;;;4.00;;
59442;SDS011;45247;47.466;19.004;2023-11-21T06:40:48;12.60;;;4.13;;
59442;SDS011;45247;47.466;19.004;2023-11-21T06:43:16;10.20;;;4.15;;
59442;SDS011;45247;47.466;19.004;2023-11-21T06:45:45;8.70;;;4.95;;
59442;SDS011;45247;47.466;19.004;2023-11-21T06:48:13;8.95;;;4.50;;
59442;SDS011;45247;47.466;19.004;2023-11-21T06:50:41;7.07;;;4.13;;
59442;SDS011;45247;47.466;19.004;2023-11-21T06:53:10;12.10;;;4.80;;
59442;SDS011;45247;47.466;19.004;2023-11-21T06:55:39;10.63;;;5.25;;
59442;SDS011;45247;47.466;19.004;2023-11-21T06:58:08;18.88;;;7.38;;
59442;SDS011;45247;47.466;19.004;2023-11-21T07:00:36;14.15;;;5.70;;
59442;SDS011;45247;47.466;19.004;2023-11-21T07:03:04;14.00;;;5.80;;
59442;SDS011;45247;47.466;19.004;2023-11-21T07:05:33;13.00;;;5.10;;
59442;SDS011;45247;47.466;19.004;2023-11-21T07:08:01;14.13;;;4.75;;
59442;SDS011;45247;47.466;19.004;2023-11-21T07:10:31;14.70;;;4.45;;
59442;SDS011;45247;47.466;19.004;2023-11-21T07:13:00;7.65;;;3.65;;
59442;SDS011;45247;47.466;19.004;2023-11-21T07:15:29;14.27;;;4.10;;
59442;SDS011;45247;47.466;19.004;2023-11-21T07:17:57;12.02;;;4.57;;
59442;SDS011;45247;47.466;19.004;2023-11-21T07:20:25;18.23;;;6.22;;
59442;SDS011;45247;47.466;19.004;2023-11-21T07:22:53;15.07;;;5.82;;
59442;SDS011;45247;47.466;19.004;2023-11-21T07:25:22;20.10;;;5.72;;
59442;SDS011;45247;47.466;19.004;2023-11-21T07:27:50;10.82;;;4.32;;
59442;SDS011;45247;47.466;19.004;2023-11-21T07:30:20;12.60;;;4.50;;
59442;SDS011;45247;47.466;19.004;2023-11-21T07:32:50;8.25;;;3.95;;
59442;SDS011;45247;47.466;19.004;2023-11-21T07:35:18;8.50;;;4.18;;
59442;SDS011;45247;47.466;19.004;2023-11-21T07:37:46;14.73;;;3.92;;
59442;SDS011;45247;47.466;19.004;2023-11-21T07:40:15;6.93;;;3.45;;
59442;SDS011;45247;47.466;19.004;2023-11-21T07:42:44;7.75;;;3.10;;
59442;SDS011;45247;47.466;19.004;2023-11-21T07:45:12;11.02;;;3.97;;
59442;SDS011;45247;47.466;19.004;2023-11-21T07:47:43;9.23;;;3.70;;
59442;SDS011;45247;47.466;19.004;2023-11-21T07:50:11;8.35;;;3.65;;
59442;SDS011;45247;47.466;19.004;2023-11-21T07:52:40;11.27;;;4.07;;
59442;SDS011;45247;47.466;19.004;2023-11-21T07:55:08;9.20;;;3.63;;
59442;SDS011;45247;47.466;19.004;2023-11-21T07:57:38;9.18;;;4.25;;
59442;SDS011;45247;47.466;19.004;2023-11-21T08:00:06;10.15;;;4.28;;
59442;SDS011;45247;47.466;19.004;2023-11-21T08:02:39;10.75;;;5.22;;
59442;SDS011;45247;47.466;19.004;2023-11-21T08:05:10;11.93;;;6.30;;
59442;SDS011;45247;47.466;19.004;2023-11-21T08:07:50;16.95;;;7.07;;
59442;SDS011;45247;47.466;19.004;2023-11-21T08:10:19;11.52;;;6.28;;
59442;SDS011;45247;47.466;19.004;2023-11-21T08:12:48;17.27;;;7.30;;
59442;SDS011;45247;47.466;19.004;2023-11-21T08:15:18;13.90;;;6.38;;
59442;SDS011;45247;47.466;19.004;2023-11-21T08:17:46;12.82;;;6.65;;
59442;SDS011;45247;47.466;19.004;2023-11-21T08:20:16;11.82;;;6.20;;
59442;SDS011;45247;47.466;19.004;2023-11-21T08:22:45;13.73;;;6.10;;
59442;SDS011;45247;47.466;19.004;2023-11-21T08:25:14;12.05;;;5.88;;
59442;SDS011;45247;47.466;19.004;2023-11-21T08:27:43;11.48;;;5.07;;
59442;SDS011;45247;47.466;19.004;2023-11-21T08:30:12;13.45;;;5.68;;
59442;SDS011;45247;47.466;19.004;2023-11-21T08:32:40;15.15;;;5.97;;
59442;SDS011;45247;47.466;19.004;2023-11-21T08:35:10;13.40;;;5.78;;
59442;SDS011;45247;47.466;19.004;2023-11-21T08:37:41;13.27;;;6.53;;
59442;SDS011;45247;47.466;19.004;2023-11-21T08:40:10;15.73;;;6.90;;
59442;SDS011;45247;47.466;19.004;2023-11-21T08:42:44;13.48;;;4.97;;
59442;SDS011;45247;47.466;19.004;2023-11-21T08:45:13;9.90;;;4.70;;
59442;SDS011;45247;47.466;19.004;2023-11-21T08:47:41;13.15;;;5.38;;
59442;SDS011;45247;47.466;19.004;2023-11-21T08:50:11;10.45;;;5.28;;
59442;SDS011;45247;47.466;19.004;2023-11-21T08:52:41;12.35;;;5.25;;
59442;SDS011;45247;47.466;19.004;2023-11-21T08:55:09;11.05;;;5.18;;
59442;SDS011;45247;47.466;19.004;2023-11-21T08:57:39;11.30;;;5.28;;
59442;SDS011;45247;47.466;19.004;2023-11-21T09:00:08;8.68;;;4.60;;
59442;SDS011;45247;47.466;19.004;2023-11-21T09:02:38;9.10;;;4.50;;
59442;SDS011;45247;47.466;19.004;2023-11-21T09:05:08;10.55;;;5.03;;
59442;SDS011;45247;47.466;19.004;2023-11-21T09:07:38;14.15;;;5.05;;
59442;SDS011;45247;47.466;19.004;2023-11-21T09:10:10;9.98;;;4.82;;
59442;SDS011;45247;47.466;19.004;2023-11-21T09:12:38;11.65;;;4.82;;
59442;SDS011;45247;47.466;19.004;2023-11-21T09:15:07;10.68;;;5.13;;
59442;SDS011;45247;47.466;19.004;2023-11-21T09:17:38;9.35;;;5.75;;
59442;SDS011;45247;47.466;19.004;2023-11-21T09:20:07;11.10;;;5.47;;
59442;SDS011;45247;47.466;19.004;2023-11-21T09:22:37;10.02;;;5.57;;
59442;SDS011;45247;47.466;19.004;2023-11-21T09:25:05;17.17;;;6.88;;
59442;SDS011;45247;47.466;19.004;2023-11-21T09:27:36;11.68;;;6.70;;
59442;SDS011;45247;47.466;19.004;2023-11-21T09:30:05;13.93;;;6.35;;
59442;SDS011;45247;47.466;19.004;2023-11-21T09:32:37;10.35;;;5.13;;
59442;SDS011;45247;47.466;19.004;2023-11-21T09:35:07;16.10;;;6.35;;
59442;SDS011;45247;47.466;19.004;2023-11-21T09:37:37;14.43;;;6.60;;
59442;SDS011;45247;47.466;19.004;2023-11-21T09:40:06;11.95;;;5.32;;
59442;SDS011;45247;47.466;19.004;2023-11-21T09:42:43;10.82;;;4.90;;
59442;SDS011;45247;47.466;19.004;2023-11-21T09:45:18;14.70;;;5.95;;
59442;SDS011;45247;47.466;19.004;2023-11-21T09:47:52;12.52;;;6.10;;
59442;SDS011;45247;47.466;19.004;2023-11-21T09:50:22;15.35;;;6.47;;
59442;SDS011;45247;47.466;19.004;2023-11-21T09:52:57;16.95;;;6.13;;
59442;SDS011;45247;47.466;19.004;2023-11-21T09:55:32;22.73;;;8.52;;
59442;SDS011;45247;47.466;19.004;2023-11-21T09:58:05;15.95;;;7.72;;
59442;SDS011;45247;47.466;19.004;2023-11-21T10:00:34;15.10;;;7.57;;
59442;SDS011;45247;47.466;19.004;2023-11-21T10:03:03;17.45;;;7.43;;
59442;SDS011;45247;47.466;19.004;2023-11-21T10:05:31;14.55;;;7.63;;
59442;SDS011;45247;47.466;19.004;2023-11-21T10:08:01;25.00;;;11.55;;
59442;SDS011;45247;47.466;19.004;2023-11-21T10:10:33;20.60;;;11.70;;
59442;SDS011;45247;47.466;19.004;2023-11-21T10:13:03;19.20;;;11.18;;
59442;SDS011;45247;47.466;19.004;2023-11-21T10:15:34;16.55;;;8.77;;
59442;SDS011;45247;47.466;19.004;2023-11-21T10:18:03;17.17;;;9.27;;
59442;SDS011;45247;47.466;19.004;2023-11-21T10:20:33;14.07;;;5.50;;
59442;SDS011;45247;47.466;19.004;2023-11-21T10:23:01;11.80;;;7.18;;
59442;SDS011;45247;47.466;19.004;2023-11-21T10:25:30;13.75;;;6.53;;
59442;SDS011;45247;47.466;19.004;2023-11-21T10:27:59;12.77;;;6.55;;
59442;SDS011;45247;47.466;19.004;2023-11-21T10:33:04;25.98;;;8.95;;
59442;SDS011;45247;47.466;19.004;2023-11-21T10:35:44;14.38;;;7.55;;
59442;SDS011;45247;47.466;19.004;2023-11-21T10:38:18;22.17;;;7.97;;
59442;SDS011;45247;47.466;19.004;2023-11-21T10:40:49;15.52;;;7.15;;
59442;SDS011;45247;47.466;19.004;2023-11-21T10:43:18;15.75;;;7.32;;
59442;SDS011;45247;47.466;19.004;2023-11-21T10:45:48;14.48;;;7.28;;
59442;SDS011;45247;47.466;19.004;2023-11-21T10:48:16;23.02;;;7.38;;
59442;SDS011;45247;47.466;19.004;2023-11-21T10:50:45;20.55;;;7.63;;
59442;SDS011;45247;47.466;19.004;2023-11-21T10:53:14;17.58;;;7.15;;
59442;SDS011;45247;47.466;19.004;2023-11-21T10:55:42;12.65;;;5.90;;
59442;SDS011;45247;47.466;19.004;2023-11-21T10:58:13;14.27;;;6.63;;
59442;SDS011;45247;47.466;19.004;2023-11-21T11:00:42;12.52;;;6.47;;
59442;SDS011;45247;47.466;19.004;2023-11-21T11:03:14;12.48;;;6.63;;
59442;SDS011;45247;47.466;19.004;2023-11-21T11:05:43;12.75;;;6.32;;
59442;SDS011;45247;47.466;19.004;2023-11-21T11:08:19;12.73;;;5.90;;
59442;SDS011;45247;47.466;19.004;2023-11-21T11:10:54;12.68;;;5.70;;
59442;SDS011;45247;47.466;19.004;2023-11-21T11:13:28;16.73;;;7.15;;
59442;SDS011;45247;47.466;19.004;2023-11-21T11:15:57;18.05;;;6.55;;
59442;SDS011;45247;47.466;19.004;2023-11-21T11:18:29;16.58;;;7.50;;
59442;SDS011;45247;47.466;19.004;2023-11-21T11:21:00;13.57;;;6.55;;
59442;SDS011;45247;47.466;19.004;2023-11-21T11:23:39;18.52;;;7.32;;
59442;SDS011;45247;47.466;19.004;2023-11-21T11:26:20;15.68;;;6.40;;
59442;SDS011;45247;47.466;19.004;2023-11-21T11:29:01;18.27;;;8.82;;
59442;SDS011;45247;47.466;19.004;2023-11-21T11:31:37;15.43;;;7.35;;
59442;SDS011;45247;47.466;19.004;2023-11-21T11:34:17;12.60;;;5.78;;
59442;SDS011;45247;47.466;19.004;2023-11-21T11:36:54;20.67;;;5.78;;
59442;SDS011;45247;47.466;19.004;2023-11-21T11:39:30;10.20;;;4.75;;
59442;SDS011;45247;47.466;19.004;2023-11-21T11:41:59;11.98;;;5.22;;
59442;SDS011;45247;47.466;19.004;2023-11-21T11:44:49;14.40;;;5.70;;
59442;SDS011;45247;47.466;19.004;2023-11-21T11:47:23;16.00;;;5.63;;
59442;SDS011;45247;47.466;19.004;2023-11-21T11:49:58;14.70;;;5.90;;
59442;SDS011;45247;47.466;19.004;2023-11-21T11:52:38;14.45;;;5.95;;
59442;SDS011;45247;47.466;19.004;2023-11-21T11:55:08;8.02;;;4.68;;
59442;SDS011;45247;47.466;19.004;2023-11-21T11:57:37;12.73;;;6.13;;
59442;SDS011;45247;47.466;19.004;2023-11-21T12:00:07;11.43;;;5.88;;
59442;SDS011;45247;47.466;19.004;2023-11-21T12:02:48;15.40;;;5.22;;
59442;SDS011;45247;47.466;19.004;2023-11-21T12:05:20;8.75;;;4.88;;
59442;SDS011;45247;47.466;19.004;2023-11-21T12:07:50;9.57;;;5.07;;
59442;SDS011;45247;47.466;19.004;2023-11-21T12:10:20;16.38;;;5.28;;
59442;SDS011;45247;47.466;19.004;2023-11-21T12:12:52;8.32;;;4.50;;
59442;SDS011;45247;47.466;19.004;2023-11-21T12:15:21;11.13;;;5.05;;
59442;SDS011;45247;47.466;19.004;2023-11-21T12:17:50;13.75;;;4.78;;
59442;SDS011;45247;47.466;19.004;2023-11-21T12:20:20;11.52;;;4.72;;
59442;SDS011;45247;47.466;19.004;2023-11-21T12:22:50;12.98;;;5.55;;
59442;SDS011;45247;47.466;19.004;2023-11-21T12:25:20;19.27;;;7.60;;
59442;SDS011;45247;47.466;19.004;2023-11-21T12:27:50;13.02;;;6.30;;
59442;SDS011;45247;47.466;19.004;2023-11-21T12:30:20;11.10;;;5.10;;
59442;SDS011;45247;47.466;19.004;2023-11-21T12:32:49;10.80;;;5.53;;
59442;SDS011;45247;47.466;19.004;2023-11-21T12:35:21;11.05;;;5.50;;
59442;SDS011;45247;47.466;19.004;2023-11-21T12:37:50;8.88;;;4.78;;
59442;SDS011;45247;47.466;19.004;2023-11-21T12:40:20;10.00;;;5.95;;
59442;SDS011;45247;47.466;19.004;2023-11-21T12:42:51;12.98;;;5.97;;
59442;SDS011;45247;47.466;19.004;2023-11-21T12:45:20;11.55;;;5.63;;
59442;SDS011;45247;47.466;19.004;2023-11-21T12:47:54;10.65;;;4.93;;
59442;SDS011;45247;47.466;19.004;2023-11-21T12:50:25;9.13;;;5.10;;
59442;SDS011;45247;47.466;19.004;2023-11-21T12:52:58;12.87;;;5.80;;
59442;SDS011;45247;47.466;19.004;2023-11-21T12:55:29;14.23;;;4.95;;
59442;SDS011;45247;47.466;19.004;2023-11-21T12:58:00;14.68;;;5.00;;
59442;SDS011;45247;47.466;19.004;2023-11-21T13:00:36;12.80;;;4.68;;
59442;SDS011;45247;47.466;19.004;2023-11-21T13:03:06;11.00;;;4.70;;
59442;SDS011;45247;47.466;19.004;2023-11-21T13:05:38;13.57;;;5.43;;
59442;SDS011;45247;47.466;19.004;2023-11-21T13:08:11;15.85;;;5.75;;
59442;SDS011;45247;47.466;19.004;2023-11-21T13:10:40;12.30;;;4.90;;
59442;SDS011;45247;47.466;19.004;2023-11-21T13:13:13;10.77;;;4.85;;
59442;SDS011;45247;47.466;19.004;2023-11-21T13:15:50;9.05;;;4.43;;
59442;SDS011;45247;47.466;19.004;2023-11-21T13:18:19;9.25;;;4.57;;
59442;SDS011;45247;47.466;19.004;2023-11-21T13:20:49;8.45;;;4.65;;
59442;SDS011;45247;47.466;19.004;2023-11-21T13:23:18;10.18;;;4.85;;
59442;SDS011;45247;47.466;19.004;2023-11-21T13:25:46;8.52;;;4.78;;
59442;SDS011;45247;47.466;19.004;2023-11-21T13:28:27;11.90;;;5.00;;
59442;SDS011;45247;47.466;19.004;2023-11-21T13:30:59;9.52;;;4.53;;
59442;SDS011;45247;47.466;19.004;2023-11-21T13:33:29;11.80;;;5.25;;
59442;SDS011;45247;47.466;19.004;2023-11-21T13:36:01;14.52;;;4.38;;
59442;SDS011;45247;47.466;19.004;2023-11-21T13:38:29;9.48;;;4.78;;
59442;SDS011;45247;47.466;19.004;2023-11-21T13:40:59;9.90;;;6.00;;
59442;SDS011;45247;47.466;19.004;2023-11-21T13:43:28;9.00;;;4.50;;
59442;SDS011;45247;47.466;19.004;2023-11-21T13:45:58;12.68;;;5.63;;
59442;SDS011;45247;47.466;19.004;2023-11-21T13:48:29;12.68;;;5.40;;
59442;SDS011;45247;47.466;19.004;2023-11-21T13:51:02;15.98;;;5.50;;
59442;SDS011;45247;47.466;19.004;2023-11-21T13:53:39;10.55;;;5.03;;
59442;SDS011;45247;47.466;19.004;2023-11-21T13:56:09;10.02;;;4.28;;
59442;SDS011;45247;47.466;19.004;2023-11-21T13:58:37;17.45;;;4.90;;
59442;SDS011;45247;47.466;19.004;2023-11-21T14:01:13;9.60;;;4.72;;
59442;SDS011;45247;47.466;19.004;2023-11-21T14:04:02;9.68;;;4.28;;
59442;SDS011;45247;47.466;19.004;2023-11-21T14:06:48;7.38;;;4.55;;
59442;SDS011;45247;47.466;19.004;2023-11-21T14:09:21;9.10;;;4.20;;
59442;SDS011;45247;47.466;19.004;2023-11-21T14:11:53;10.02;;;3.97;;
59442;SDS011;45247;47.466;19.004;2023-11-21T14:14:24;7.95;;;3.53;;
59442;SDS011;45247;47.466;19.004;2023-11-21T14:16:54;13.15;;;6.22;;
59442;SDS011;45247;47.466;19.004;2023-11-21T14:19:23;11.77;;;5.15;;
59442;SDS011;45247;47.466;19.004;2023-11-21T14:21:59;9.07;;;5.82;;
59442;SDS011;45247;47.466;19.004;2023-11-21T14:24:27;14.70;;;6.25;;
59442;SDS011;45247;47.466;19.004;2023-11-21T14:26:59;8.63;;;4.97;;
59442;SDS011;45247;47.466;19.004;2023-11-21T14:29:27;11.57;;;5.78;;
59442;SDS011;45247;47.466;19.004;2023-11-21T14:31:56;9.88;;;5.95;;
59442;SDS011;45247;47.466;19.004;2023-11-21T14:34:24;15.18;;;6.68;;
59442;SDS011;45247;47.466;19.004;2023-11-21T14:36:53;16.27;;;5.82;;
59442;SDS011;45247;47.466;19.004;2023-11-21T14:39:22;12.02;;;5.55;;
59442;SDS011;45247;47.466;19.004;2023-11-21T14:41:53;12.53;;;5.33;;
59442;SDS011;45247;47.466;19.004;2023-11-21T14:44:22;15.90;;;5.75;;
59442;SDS011;45247;47.466;19.004;2023-11-21T14:46:54;11.77;;;5.43;;